sensor_id;sensor_type;location;lat;lon;timestamp;temperature;humidity
326;DHT22;150;52.352;14.058;2022-11-20T00:00:17;2.20;49.30
326;DHT22;150;52.352;14.058;2022-11-20T00:02:45;2.20;49.70
326;DHT22;150;52.352;14.058;2022-11-20T00:05:12;2.20;49.80
326;DHT22;150;52.352;14.058;2022-11-20T00:07:38;2.30;49.50
326;DHT22;150;52.352;14.058;2022-11-20T00:10:06;2.40;49.20
326;DHT22;150;52.352;14.058;2022-11-20T00:12:32;2.40;48.70
326;DHT22;150;52.352;14.058;2022-11-20T00:14:59;2.40;48.50
326;DHT22;150;52.352;14.058;2022-11-20T00:17:26;2.30;48.00
326;DHT22;150;52.352;14.058;2022-11-20T00:19:54;2.30;48.40
326;DHT22;150;52.352;14.058;2022-11-20T00:22:21;2.30;48.40
326;DHT22;150;52.352;14.058;2022-11-20T00:24:47;2.40;48.70
326;DHT22;150;52.352;14.058;2022-11-20T00:27:14;2.40;49.10
326;DHT22;150;52.352;14.058;2022-11-20T00:29:40;2.50;49.20
326;DHT22;150;52.352;14.058;2022-11-20T00:32:07;2.60;48.20
326;DHT22;150;52.352;14.058;2022-11-20T00:34:34;2.60;48.20
326;DHT22;150;52.352;14.058;2022-11-20T00:37:01;2.60;48.20
326;DHT22;150;52.352;14.058;2022-11-20T00:39:28;2.70;48.00
326;DHT22;150;52.352;14.058;2022-11-20T00:41:55;2.60;47.60
326;DHT22;150;52.352;14.058;2022-11-20T00:44:21;2.70;47.70
326;DHT22;150;52.352;14.058;2022-11-20T00:46:48;2.70;47.60
326;DHT22;150;52.352;14.058;2022-11-20T00:49:14;2.70;47.60
326;DHT22;150;52.352;14.058;2022-11-20T00:51:41;2.50;47.10
326;DHT22;150;52.352;14.058;2022-11-20T00:54:09;2.50;47.30
326;DHT22;150;52.352;14.058;2022-11-20T00:56:36;2.40;47.30
326;DHT22;150;52.352;14.058;2022-11-20T00:59:02;2.40;47.90
326;DHT22;150;52.352;14.058;2022-11-20T01:01:29;2.30;47.90
326;DHT22;150;52.352;14.058;2022-11-20T01:03:59;2.20;47.90
326;DHT22;150;52.352;14.058;2022-11-20T01:06:27;2.20;48.50
326;DHT22;150;52.352;14.058;2022-11-20T01:08:55;2.20;48.90
326;DHT22;150;52.352;14.058;2022-11-20T01:11:26;2.30;49.50
326;DHT22;150;52.352;14.058;2022-11-20T01:13:54;2.40;49.30
326;DHT22;150;52.352;14.058;2022-11-20T01:16:22;2.50;48.20
326;DHT22;150;52.352;14.058;2022-11-20T01:18:51;2.50;48.10
326;DHT22;150;52.352;14.058;2022-11-20T01:21:20;2.40;48.00
326;DHT22;150;52.352;14.058;2022-11-20T01:23:48;2.40;47.60
326;DHT22;150;52.352;14.058;2022-11-20T01:26:17;2.40;48.00
326;DHT22;150;52.352;14.058;2022-11-20T01:28:46;2.50;48.10
326;DHT22;150;52.352;14.058;2022-11-20T01:31:14;2.40;48.00
326;DHT22;150;52.352;14.058;2022-11-20T01:33:41;2.40;48.00
326;DHT22;150;52.352;14.058;2022-11-20T01:36:09;2.40;48.00
326;DHT22;150;52.352;14.058;2022-11-20T01:38:36;2.30;47.90
326;DHT22;150;52.352;14.058;2022-11-20T01:41:03;2.30;47.90
326;DHT22;150;52.352;14.058;2022-11-20T01:43:30;2.30;47.90
326;DHT22;150;52.352;14.058;2022-11-20T01:46:03;2.30;47.90
326;DHT22;150;52.352;14.058;2022-11-20T01:48:35;2.20;47.90
326;DHT22;150;52.352;14.058;2022-11-20T01:51:04;2.20;47.90
326;DHT22;150;52.352;14.058;2022-11-20T01:53:34;2.10;47.80
326;DHT22;150;52.352;14.058;2022-11-20T01:56:04;2.10;48.20
326;DHT22;150;52.352;14.058;2022-11-20T01:58:34;2.20;47.90
326;DHT22;150;52.352;14.058;2022-11-20T02:01:04;2.20;47.90
326;DHT22;150;52.352;14.058;2022-11-20T02:03:31;2.00;47.70
326;DHT22;150;52.352;14.058;2022-11-20T02:06:03;2.20;47.90
326;DHT22;150;52.352;14.058;2022-11-20T02:08:31;2.20;47.90
326;DHT22;150;52.352;14.058;2022-11-20T02:10:58;2.20;47.90
326;DHT22;150;52.352;14.058;2022-11-20T02:13:25;2.20;47.50
326;DHT22;150;52.352;14.058;2022-11-20T02:16:16;2.10;46.90
326;DHT22;150;52.352;14.058;2022-11-20T02:18:44;2.00;47.30
326;DHT22;150;52.352;14.058;2022-11-20T02:21:19;2.00;47.70
326;DHT22;150;52.352;14.058;2022-11-20T02:24:07;2.00;47.70
326;DHT22;150;52.352;14.058;2022-11-20T02:26:41;2.00;47.70
326;DHT22;150;52.352;14.058;2022-11-20T02:29:09;2.00;47.70
326;DHT22;150;52.352;14.058;2022-11-20T02:31:38;1.90;47.60
326;DHT22;150;52.352;14.058;2022-11-20T02:34:05;2.00;47.70
326;DHT22;150;52.352;14.058;2022-11-20T02:36:33;1.90;47.60
326;DHT22;150;52.352;14.058;2022-11-20T02:39:02;2.00;47.70
326;DHT22;150;52.352;14.058;2022-11-20T02:41:35;2.00;47.70
326;DHT22;150;52.352;14.058;2022-11-20T02:44:03;2.00;47.70
326;DHT22;150;52.352;14.058;2022-11-20T02:46:30;2.00;47.70
326;DHT22;150;52.352;14.058;2022-11-20T02:48:57;2.00;47.60
326;DHT22;150;52.352;14.058;2022-11-20T02:51:24;2.00;46.70
326;DHT22;150;52.352;14.058;2022-11-20T02:53:51;1.80;47.10
326;DHT22;150;52.352;14.058;2022-11-20T02:56:17;1.90;47.40
326;DHT22;150;52.352;14.058;2022-11-20T02:58:45;1.90;47.30
326;DHT22;150;52.352;14.058;2022-11-20T03:01:12;1.80;47.30
326;DHT22;150;52.352;14.058;2022-11-20T03:03:40;1.80;47.00
326;DHT22;150;52.352;14.058;2022-11-20T03:06:07;1.90;47.10
326;DHT22;150;52.352;14.058;2022-11-20T03:08:34;1.80;46.90
326;DHT22;150;52.352;14.058;2022-11-20T03:11:05;1.90;46.70
326;DHT22;150;52.352;14.058;2022-11-20T03:13:32;1.80;46.50
326;DHT22;150;52.352;14.058;2022-11-20T03:16:06;1.80;46.50
326;DHT22;150;52.352;14.058;2022-11-20T03:18:33;1.80;46.10
326;DHT22;150;52.352;14.058;2022-11-20T03:21:00;1.80;46.40
326;DHT22;150;52.352;14.058;2022-11-20T03:23:28;1.80;46.50
326;DHT22;150;52.352;14.058;2022-11-20T03:25:55;1.70;46.00
326;DHT22;150;52.352;14.058;2022-11-20T03:28:22;1.70;46.00
326;DHT22;150;52.352;14.058;2022-11-20T03:30:54;1.80;45.70
326;DHT22;150;52.352;14.058;2022-11-20T03:33:22;1.70;46.00
326;DHT22;150;52.352;14.058;2022-11-20T03:35:48;1.70;46.00
326;DHT22;150;52.352;14.058;2022-11-20T03:38:15;1.70;45.90
326;DHT22;150;52.352;14.058;2022-11-20T03:40:41;1.60;45.90
326;DHT22;150;52.352;14.058;2022-11-20T03:43:09;1.60;46.30
326;DHT22;150;52.352;14.058;2022-11-20T03:45:36;1.60;46.30
326;DHT22;150;52.352;14.058;2022-11-20T03:48:03;1.50;46.20
326;DHT22;150;52.352;14.058;2022-11-20T03:50:31;1.60;46.30
326;DHT22;150;52.352;14.058;2022-11-20T03:52:57;1.50;45.80
326;DHT22;150;52.352;14.058;2022-11-20T03:55:24;1.50;45.70
326;DHT22;150;52.352;14.058;2022-11-20T03:57:51;1.50;45.60
326;DHT22;150;52.352;14.058;2022-11-20T04:00:18;1.50;45.40
326;DHT22;150;52.352;14.058;2022-11-20T04:02:44;1.50;45.20
326;DHT22;150;52.352;14.058;2022-11-20T04:05:11;1.50;45.50
326;DHT22;150;52.352;14.058;2022-11-20T04:07:39;1.60;45.50
326;DHT22;150;52.352;14.058;2022-11-20T04:10:06;1.60;45.30
326;DHT22;150;52.352;14.058;2022-11-20T04:12:33;1.50;45.10
326;DHT22;150;52.352;14.058;2022-11-20T04:15:00;1.60;45.30
326;DHT22;150;52.352;14.058;2022-11-20T04:17:27;1.60;45.10
326;DHT22;150;52.352;14.058;2022-11-20T04:19:53;1.60;45.10
326;DHT22;150;52.352;14.058;2022-11-20T04:22:20;1.60;45.20
326;DHT22;150;52.352;14.058;2022-11-20T04:24:48;1.60;45.30
326;DHT22;150;52.352;14.058;2022-11-20T04:27:14;1.70;45.60
326;DHT22;150;52.352;14.058;2022-11-20T04:29:41;1.70;45.20
326;DHT22;150;52.352;14.058;2022-11-20T04:32:08;1.70;45.00
326;DHT22;150;52.352;14.058;2022-11-20T04:34:35;1.60;45.10
326;DHT22;150;52.352;14.058;2022-11-20T04:37:01;1.50;45.30
326;DHT22;150;52.352;14.058;2022-11-20T04:39:28;1.60;45.40
326;DHT22;150;52.352;14.058;2022-11-20T04:41:56;1.70;45.80
326;DHT22;150;52.352;14.058;2022-11-20T04:44:36;1.70;45.30
326;DHT22;150;52.352;14.058;2022-11-20T04:47:03;1.80;45.20
326;DHT22;150;52.352;14.058;2022-11-20T04:49:30;1.80;44.90
326;DHT22;150;52.352;14.058;2022-11-20T04:51:57;1.80;44.60
326;DHT22;150;52.352;14.058;2022-11-20T04:54:24;1.80;44.10
326;DHT22;150;52.352;14.058;2022-11-20T04:56:51;1.90;44.50
326;DHT22;150;52.352;14.058;2022-11-20T04:59:19;1.90;44.10
326;DHT22;150;52.352;14.058;2022-11-20T05:01:45;1.90;43.90
326;DHT22;150;52.352;14.058;2022-11-20T05:04:12;1.90;43.70
326;DHT22;150;52.352;14.058;2022-11-20T05:06:40;1.80;44.10
326;DHT22;150;52.352;14.058;2022-11-20T05:09:06;1.90;44.10
326;DHT22;150;52.352;14.058;2022-11-20T05:11:33;1.80;44.10
326;DHT22;150;52.352;14.058;2022-11-20T05:13:59;1.90;44.10
326;DHT22;150;52.352;14.058;2022-11-20T05:16:28;1.90;43.90
326;DHT22;150;52.352;14.058;2022-11-20T05:18:55;1.80;44.20
326;DHT22;150;52.352;14.058;2022-11-20T05:21:22;1.90;44.60
326;DHT22;150;52.352;14.058;2022-11-20T05:23:49;1.90;44.10
326;DHT22;150;52.352;14.058;2022-11-20T05:26:17;1.80;44.50
326;DHT22;150;52.352;14.058;2022-11-20T05:28:46;1.80;44.70
326;DHT22;150;52.352;14.058;2022-11-20T05:31:15;1.90;45.30
326;DHT22;150;52.352;14.058;2022-11-20T05:34:06;2.00;45.30
326;DHT22;150;52.352;14.058;2022-11-20T05:36:53;2.00;45.00
326;DHT22;150;52.352;14.058;2022-11-20T05:39:45;2.20;44.80
326;DHT22;150;52.352;14.058;2022-11-20T05:46:49;2.20;44.10
326;DHT22;150;52.352;14.058;2022-11-20T05:50:09;2.40;43.40
326;DHT22;150;52.352;14.058;2022-11-20T05:53:29;2.50;43.00
326;DHT22;150;52.352;14.058;2022-11-20T05:59:59;2.40;42.30
326;DHT22;150;52.352;14.058;2022-11-20T06:03:24;2.40;42.90
326;DHT22;150;52.352;14.058;2022-11-20T06:09:58;2.30;42.80
326;DHT22;150;52.352;14.058;2022-11-20T06:13:06;2.20;42.70
326;DHT22;150;52.352;14.058;2022-11-20T06:19:47;2.30;42.80
326;DHT22;150;52.352;14.058;2022-11-20T06:23:48;2.30;42.90
326;DHT22;150;52.352;14.058;2022-11-20T06:26:44;2.40;42.50
326;DHT22;150;52.352;14.058;2022-11-20T06:29:39;2.40;42.30
326;DHT22;150;52.352;14.058;2022-11-20T06:33:00;2.40;42.20
326;DHT22;150;52.352;14.058;2022-11-20T06:37:04;2.40;41.80
326;DHT22;150;52.352;14.058;2022-11-20T06:44:14;2.50;41.50
326;DHT22;150;52.352;14.058;2022-11-20T06:47:20;2.50;42.00
326;DHT22;150;52.352;14.058;2022-11-20T06:49:47;2.50;41.30
326;DHT22;150;52.352;14.058;2022-11-20T06:52:13;2.50;41.40
326;DHT22;150;52.352;14.058;2022-11-20T06:54:40;2.40;41.00
326;DHT22;150;52.352;14.058;2022-11-20T06:57:07;2.40;41.90
326;DHT22;150;52.352;14.058;2022-11-20T06:59:35;2.30;41.50
326;DHT22;150;52.352;14.058;2022-11-20T07:02:01;2.20;41.20
326;DHT22;150;52.352;14.058;2022-11-20T07:04:28;2.10;41.30
326;DHT22;150;52.352;14.058;2022-11-20T07:06:55;2.00;42.00
326;DHT22;150;52.352;14.058;2022-11-20T07:09:21;2.10;42.70
326;DHT22;150;52.352;14.058;2022-11-20T07:11:48;2.10;42.80
326;DHT22;150;52.352;14.058;2022-11-20T07:14:14;2.10;42.70
326;DHT22;150;52.352;14.058;2022-11-20T07:16:42;2.20;42.30
326;DHT22;150;52.352;14.058;2022-11-20T07:19:09;2.10;41.30
326;DHT22;150;52.352;14.058;2022-11-20T07:21:36;2.10;41.80
326;DHT22;150;52.352;14.058;2022-11-20T07:24:03;2.10;41.30
326;DHT22;150;52.352;14.058;2022-11-20T07:26:29;1.80;41.40
326;DHT22;150;52.352;14.058;2022-11-20T07:28:56;1.80;42.40
326;DHT22;150;52.352;14.058;2022-11-20T07:31:22;1.70;42.70
326;DHT22;150;52.352;14.058;2022-11-20T07:33:50;1.70;43.10
326;DHT22;150;52.352;14.058;2022-11-20T07:36:17;1.70;43.10
326;DHT22;150;52.352;14.058;2022-11-20T07:38:43;1.80;43.40
326;DHT22;150;52.352;14.058;2022-11-20T07:41:10;1.80;43.00
326;DHT22;150;52.352;14.058;2022-11-20T07:43:37;1.70;42.30
326;DHT22;150;52.352;14.058;2022-11-20T07:46:04;1.70;42.90
326;DHT22;150;52.352;14.058;2022-11-20T07:48:30;1.70;43.20
326;DHT22;150;52.352;14.058;2022-11-20T07:50:59;1.70;43.20
326;DHT22;150;52.352;14.058;2022-11-20T07:53:25;1.80;43.20
326;DHT22;150;52.352;14.058;2022-11-20T07:55:52;1.70;42.70
326;DHT22;150;52.352;14.058;2022-11-20T07:58:18;1.60;43.50
326;DHT22;150;52.352;14.058;2022-11-20T08:00:45;1.60;43.90
326;DHT22;150;52.352;14.058;2022-11-20T08:03:12;1.70;43.90
326;DHT22;150;52.352;14.058;2022-11-20T08:05:39;1.70;43.70
326;DHT22;150;52.352;14.058;2022-11-20T08:08:07;1.80;43.00
326;DHT22;150;52.352;14.058;2022-11-20T08:10:33;1.80;43.10
326;DHT22;150;52.352;14.058;2022-11-20T08:13:00;1.70;42.70
326;DHT22;150;52.352;14.058;2022-11-20T08:15:48;1.80;42.70
326;DHT22;150;52.352;14.058;2022-11-20T08:18:17;1.80;42.50
326;DHT22;150;52.352;14.058;2022-11-20T08:20:44;1.80;42.50
326;DHT22;150;52.352;14.058;2022-11-20T08:23:12;1.80;42.70
326;DHT22;150;52.352;14.058;2022-11-20T08:25:38;1.90;42.50
326;DHT22;150;52.352;14.058;2022-11-20T08:28:07;1.90;42.50
326;DHT22;150;52.352;14.058;2022-11-20T08:30:34;2.00;41.50
326;DHT22;150;52.352;14.058;2022-11-20T08:33:01;2.00;40.80
326;DHT22;150;52.352;14.058;2022-11-20T08:35:29;1.90;40.50
326;DHT22;150;52.352;14.058;2022-11-20T08:37:58;1.80;41.80
326;DHT22;150;52.352;14.058;2022-11-20T08:40:26;1.80;41.40
326;DHT22;150;52.352;14.058;2022-11-20T08:42:53;1.80;41.60
326;DHT22;150;52.352;14.058;2022-11-20T08:45:19;1.90;41.70
326;DHT22;150;52.352;14.058;2022-11-20T08:47:46;1.90;41.50
326;DHT22;150;52.352;14.058;2022-11-20T08:50:14;2.00;41.90
326;DHT22;150;52.352;14.058;2022-11-20T08:52:41;2.20;41.70
326;DHT22;150;52.352;14.058;2022-11-20T08:55:09;2.40;40.90
326;DHT22;150;52.352;14.058;2022-11-20T08:57:37;2.40;40.00
326;DHT22;150;52.352;14.058;2022-11-20T09:00:06;2.40;40.00
326;DHT22;150;52.352;14.058;2022-11-20T09:02:33;2.40;40.00
326;DHT22;150;52.352;14.058;2022-11-20T09:04:59;2.50;39.50
326;DHT22;150;52.352;14.058;2022-11-20T09:07:28;2.50;39.60
326;DHT22;150;52.352;14.058;2022-11-20T09:09:54;2.60;39.40
326;DHT22;150;52.352;14.058;2022-11-20T09:12:21;2.80;39.30
326;DHT22;150;52.352;14.058;2022-11-20T09:14:49;2.80;38.60
326;DHT22;150;52.352;14.058;2022-11-20T09:17:15;2.80;38.60
326;DHT22;150;52.352;14.058;2022-11-20T09:19:42;2.80;38.70
326;DHT22;150;52.352;14.058;2022-11-20T09:22:09;2.60;38.80
326;DHT22;150;52.352;14.058;2022-11-20T09:24:35;2.70;39.30
326;DHT22;150;52.352;14.058;2022-11-20T09:27:03;2.70;39.50
326;DHT22;150;52.352;14.058;2022-11-20T09:29:30;2.60;39.50
326;DHT22;150;52.352;14.058;2022-11-20T09:31:58;2.60;39.10
326;DHT22;150;52.352;14.058;2022-11-20T09:34:25;2.70;39.30
326;DHT22;150;52.352;14.058;2022-11-20T09:36:51;2.80;39.40
326;DHT22;150;52.352;14.058;2022-11-20T09:39:18;2.80;38.10
326;DHT22;150;52.352;14.058;2022-11-20T09:42:13;2.80;38.70
326;DHT22;150;52.352;14.058;2022-11-20T09:44:51;2.80;38.10
326;DHT22;150;52.352;14.058;2022-11-20T09:47:29;2.70;38.00
326;DHT22;150;52.352;14.058;2022-11-20T09:50:12;2.80;38.10
326;DHT22;150;52.352;14.058;2022-11-20T09:52:48;2.90;38.10
326;DHT22;150;52.352;14.058;2022-11-20T09:55:18;2.80;38.10
326;DHT22;150;52.352;14.058;2022-11-20T09:57:48;2.80;38.10
326;DHT22;150;52.352;14.058;2022-11-20T10:00:18;2.70;38.00
326;DHT22;150;52.352;14.058;2022-11-20T10:02:52;2.90;38.30
326;DHT22;150;52.352;14.058;2022-11-20T10:05:25;3.00;37.80
326;DHT22;150;52.352;14.058;2022-11-20T10:08:00;2.90;38.20
326;DHT22;150;52.352;14.058;2022-11-20T10:10:33;2.90;38.10
326;DHT22;150;52.352;14.058;2022-11-20T10:13:13;2.90;38.20
326;DHT22;150;52.352;14.058;2022-11-20T10:15:52;3.00;38.20
326;DHT22;150;52.352;14.058;2022-11-20T10:18:36;2.90;38.10
326;DHT22;150;52.352;14.058;2022-11-20T10:21:10;2.70;38.00
326;DHT22;150;52.352;14.058;2022-11-20T10:26:42;2.70;38.00
326;DHT22;150;52.352;14.058;2022-11-20T10:29:14;2.60;37.90
326;DHT22;150;52.352;14.058;2022-11-20T10:31:43;2.60;38.10
326;DHT22;150;52.352;14.058;2022-11-20T10:34:18;2.60;37.90
326;DHT22;150;52.352;14.058;2022-11-20T10:36:50;2.50;38.20
326;DHT22;150;52.352;14.058;2022-11-20T10:39:25;2.60;38.70
326;DHT22;150;52.352;14.058;2022-11-20T10:41:53;2.40;37.70
326;DHT22;150;52.352;14.058;2022-11-20T10:44:22;2.40;38.10
326;DHT22;150;52.352;14.058;2022-11-20T10:47:04;2.60;38.50
326;DHT22;150;52.352;14.058;2022-11-20T10:49:34;2.50;37.80
326;DHT22;150;52.352;14.058;2022-11-20T10:52:05;2.60;37.90
326;DHT22;150;52.352;14.058;2022-11-20T10:54:41;2.60;37.10
326;DHT22;150;52.352;14.058;2022-11-20T10:57:15;2.60;36.80
326;DHT22;150;52.352;14.058;2022-11-20T11:00:05;2.70;37.20
326;DHT22;150;52.352;14.058;2022-11-20T11:02:35;2.70;36.70
326;DHT22;150;52.352;14.058;2022-11-20T11:05:10;2.70;36.50
326;DHT22;150;52.352;14.058;2022-11-20T11:07:39;2.60;36.40
326;DHT22;150;52.352;14.058;2022-11-20T11:10:14;2.60;36.60
326;DHT22;150;52.352;14.058;2022-11-20T11:12:44;2.60;36.60
326;DHT22;150;52.352;14.058;2022-11-20T11:15:14;2.60;36.50
326;DHT22;150;52.352;14.058;2022-11-20T11:17:47;2.50;36.40
326;DHT22;150;52.352;14.058;2022-11-20T11:20:19;2.50;36.60
326;DHT22;150;52.352;14.058;2022-11-20T11:22:48;2.50;37.40
326;DHT22;150;52.352;14.058;2022-11-20T11:25:22;2.70;38.00
326;DHT22;150;52.352;14.058;2022-11-20T11:27:50;2.70;36.80
326;DHT22;150;52.352;14.058;2022-11-20T11:30:19;2.60;36.90
326;DHT22;150;52.352;14.058;2022-11-20T11:32:46;2.60;37.40
326;DHT22;150;52.352;14.058;2022-11-20T11:35:23;2.50;37.90
326;DHT22;150;52.352;14.058;2022-11-20T11:37:52;2.60;38.00
326;DHT22;150;52.352;14.058;2022-11-20T11:40:21;2.70;38.30
326;DHT22;150;52.352;14.058;2022-11-20T11:42:54;2.60;38.00
326;DHT22;150;52.352;14.058;2022-11-20T11:45:21;2.60;39.00
326;DHT22;150;52.352;14.058;2022-11-20T11:47:48;2.70;39.20
326;DHT22;150;52.352;14.058;2022-11-20T11:50:18;2.70;38.90
326;DHT22;150;52.352;14.058;2022-11-20T11:52:51;2.80;39.70
326;DHT22;150;52.352;14.058;2022-11-20T11:55:27;2.90;39.00
326;DHT22;150;52.352;14.058;2022-11-20T11:58:00;2.80;39.20
326;DHT22;150;52.352;14.058;2022-11-20T12:00:31;2.80;39.50
326;DHT22;150;52.352;14.058;2022-11-20T12:03:05;2.80;40.00
326;DHT22;150;52.352;14.058;2022-11-20T12:05:39;2.90;39.70
326;DHT22;150;52.352;14.058;2022-11-20T12:08:16;2.80;39.50
326;DHT22;150;52.352;14.058;2022-11-20T12:10:48;2.90;39.70
326;DHT22;150;52.352;14.058;2022-11-20T12:13:32;2.90;40.10
326;DHT22;150;52.352;14.058;2022-11-20T12:16:02;2.90;39.50
326;DHT22;150;52.352;14.058;2022-11-20T12:18:29;3.00;39.90
326;DHT22;150;52.352;14.058;2022-11-20T12:21:05;3.00;39.70
326;DHT22;150;52.352;14.058;2022-11-20T12:23:44;3.00;39.00
326;DHT22;150;52.352;14.058;2022-11-20T12:26:22;3.00;38.90
326;DHT22;150;52.352;14.058;2022-11-20T12:29:02;3.10;38.90
326;DHT22;150;52.352;14.058;2022-11-20T12:32:01;3.20;38.40
326;DHT22;150;52.352;14.058;2022-11-20T12:34:47;3.30;38.50
326;DHT22;150;52.352;14.058;2022-11-20T12:37:24;3.40;37.90
326;DHT22;150;52.352;14.058;2022-11-20T12:40:00;3.50;37.50
326;DHT22;150;52.352;14.058;2022-11-20T12:42:39;3.60;36.70
326;DHT22;150;52.352;14.058;2022-11-20T12:45:46;3.50;36.40
326;DHT22;150;52.352;14.058;2022-11-20T12:48:27;3.60;36.70
326;DHT22;150;52.352;14.058;2022-11-20T12:51:18;3.60;36.00
326;DHT22;150;52.352;14.058;2022-11-20T12:53:58;3.60;35.50
326;DHT22;150;52.352;14.058;2022-11-20T12:56:35;3.50;35.20
326;DHT22;150;52.352;14.058;2022-11-20T12:59:25;3.60;35.60
326;DHT22;150;52.352;14.058;2022-11-20T13:01:58;3.70;35.20
326;DHT22;150;52.352;14.058;2022-11-20T13:07:21;3.60;35.50
326;DHT22;150;52.352;14.058;2022-11-20T13:09:50;3.60;35.30
326;DHT22;150;52.352;14.058;2022-11-20T13:12:24;3.80;35.40
326;DHT22;150;52.352;14.058;2022-11-20T13:15:00;3.90;34.50
326;DHT22;150;52.352;14.058;2022-11-20T13:17:36;4.00;34.80
326;DHT22;150;52.352;14.058;2022-11-20T13:20:06;4.20;34.20
326;DHT22;150;52.352;14.058;2022-11-20T13:22:44;4.40;34.00
326;DHT22;150;52.352;14.058;2022-11-20T13:25:21;4.40;33.20
326;DHT22;150;52.352;14.058;2022-11-20T13:27:50;4.50;32.10
326;DHT22;150;52.352;14.058;2022-11-20T13:30:18;4.40;32.70
326;DHT22;150;52.352;14.058;2022-11-20T13:32:51;4.40;32.40
326;DHT22;150;52.352;14.058;2022-11-20T13:35:30;4.40;32.30
326;DHT22;150;52.352;14.058;2022-11-20T13:38:05;4.30;32.00
326;DHT22;150;52.352;14.058;2022-11-20T13:40:33;4.20;32.40
326;DHT22;150;52.352;14.058;2022-11-20T13:43:19;4.00;33.00
326;DHT22;150;52.352;14.058;2022-11-20T13:45:56;3.90;33.40
326;DHT22;150;52.352;14.058;2022-11-20T13:48:24;3.90;33.70
326;DHT22;150;52.352;14.058;2022-11-20T13:51:05;3.90;33.90
326;DHT22;150;52.352;14.058;2022-11-20T13:53:49;3.90;34.20
326;DHT22;150;52.352;14.058;2022-11-20T13:56:24;3.80;33.70
326;DHT22;150;52.352;14.058;2022-11-20T13:58:59;3.70;34.80
326;DHT22;150;52.352;14.058;2022-11-20T14:01:30;3.70;34.90
326;DHT22;150;52.352;14.058;2022-11-20T14:03:58;3.70;35.10
326;DHT22;150;52.352;14.058;2022-11-20T14:06:27;3.70;35.50
326;DHT22;150;52.352;14.058;2022-11-20T14:08:55;3.50;35.60
326;DHT22;150;52.352;14.058;2022-11-20T14:11:23;3.50;36.00
326;DHT22;150;52.352;14.058;2022-11-20T14:13:55;3.50;36.10
326;DHT22;150;52.352;14.058;2022-11-20T14:16:22;3.40;35.90
326;DHT22;150;52.352;14.058;2022-11-20T14:18:48;3.40;36.30
326;DHT22;150;52.352;14.058;2022-11-20T14:21:22;3.30;36.70
326;DHT22;150;52.352;14.058;2022-11-20T14:23:51;3.30;37.10
326;DHT22;150;52.352;14.058;2022-11-20T14:26:18;3.30;37.30
326;DHT22;150;52.352;14.058;2022-11-20T14:28:48;3.30;36.50
326;DHT22;150;52.352;14.058;2022-11-20T14:31:22;3.30;36.40
326;DHT22;150;52.352;14.058;2022-11-20T14:33:50;3.30;36.60
326;DHT22;150;52.352;14.058;2022-11-20T14:36:18;3.30;36.80
326;DHT22;150;52.352;14.058;2022-11-20T14:38:46;3.30;36.70
326;DHT22;150;52.352;14.058;2022-11-20T14:41:17;3.20;36.90
326;DHT22;150;52.352;14.058;2022-11-20T14:43:46;3.30;36.80
326;DHT22;150;52.352;14.058;2022-11-20T14:46:14;3.10;37.20
326;DHT22;150;52.352;14.058;2022-11-20T14:48:45;3.10;37.70
326;DHT22;150;52.352;14.058;2022-11-20T14:51:24;3.00;37.60
326;DHT22;150;52.352;14.058;2022-11-20T14:53:52;3.00;38.10
326;DHT22;150;52.352;14.058;2022-11-20T14:56:22;2.80;38.10
326;DHT22;150;52.352;14.058;2022-11-20T14:58:55;2.90;38.20
326;DHT22;150;52.352;14.058;2022-11-20T15:01:26;2.90;38.20
326;DHT22;150;52.352;14.058;2022-11-20T15:04:00;2.90;38.40
326;DHT22;150;52.352;14.058;2022-11-20T15:06:27;2.90;38.90
326;DHT22;150;52.352;14.058;2022-11-20T15:08:54;2.90;39.00
326;DHT22;150;52.352;14.058;2022-11-20T15:11:27;2.90;39.20
326;DHT22;150;52.352;14.058;2022-11-20T15:13:55;3.00;39.30
326;DHT22;150;52.352;14.058;2022-11-20T15:16:23;3.00;39.40
326;DHT22;150;52.352;14.058;2022-11-20T15:18:50;3.00;39.30
326;DHT22;150;52.352;14.058;2022-11-20T15:21:19;3.00;39.50
326;DHT22;150;52.352;14.058;2022-11-20T15:23:47;3.10;39.20
326;DHT22;150;52.352;14.058;2022-11-20T15:26:23;3.10;38.30
326;DHT22;150;52.352;14.058;2022-11-20T15:28:51;3.10;38.30
326;DHT22;150;52.352;14.058;2022-11-20T15:31:19;3.00;38.20
326;DHT22;150;52.352;14.058;2022-11-20T15:33:46;2.90;38.20
326;DHT22;150;52.352;14.058;2022-11-20T15:36:13;2.90;39.00
326;DHT22;150;52.352;14.058;2022-11-20T15:38:41;2.90;39.00
326;DHT22;150;52.352;14.058;2022-11-20T15:41:07;2.90;39.00
326;DHT22;150;52.352;14.058;2022-11-20T15:43:35;2.90;39.40
326;DHT22;150;52.352;14.058;2022-11-20T15:46:03;3.00;38.90
326;DHT22;150;52.352;14.058;2022-11-20T15:48:34;2.90;39.30
326;DHT22;150;52.352;14.058;2022-11-20T15:51:04;2.90;39.50
326;DHT22;150;52.352;14.058;2022-11-20T15:53:32;2.90;39.80
326;DHT22;150;52.352;14.058;2022-11-20T15:56:00;2.90;40.00
326;DHT22;150;52.352;14.058;2022-11-20T15:58:27;2.80;40.00
326;DHT22;150;52.352;14.058;2022-11-20T16:00:54;2.80;40.10
326;DHT22;150;52.352;14.058;2022-11-20T16:03:20;2.80;40.50
326;DHT22;150;52.352;14.058;2022-11-20T16:05:47;2.90;40.60
326;DHT22;150;52.352;14.058;2022-11-20T16:08:14;2.90;40.40
326;DHT22;150;52.352;14.058;2022-11-20T16:10:41;2.90;40.30
326;DHT22;150;52.352;14.058;2022-11-20T16:13:14;3.00;40.40
326;DHT22;150;52.352;14.058;2022-11-20T16:16:06;3.00;40.40
326;DHT22;150;52.352;14.058;2022-11-20T16:18:34;3.00;40.50
326;DHT22;150;52.352;14.058;2022-11-20T16:21:01;3.10;40.30
326;DHT22;150;52.352;14.058;2022-11-20T16:23:28;3.10;40.20
326;DHT22;150;52.352;14.058;2022-11-20T16:25:55;3.30;39.90
326;DHT22;150;52.352;14.058;2022-11-20T16:28:23;3.20;39.70
326;DHT22;150;52.352;14.058;2022-11-20T16:30:49;3.30;40.00
326;DHT22;150;52.352;14.058;2022-11-20T16:33:16;3.30;39.70
326;DHT22;150;52.352;14.058;2022-11-20T16:35:43;3.20;39.90
326;DHT22;150;52.352;14.058;2022-11-20T16:38:10;3.10;40.10
326;DHT22;150;52.352;14.058;2022-11-20T16:40:36;3.10;40.20
326;DHT22;150;52.352;14.058;2022-11-20T16:43:08;3.00;40.40
326;DHT22;150;52.352;14.058;2022-11-20T16:45:41;2.90;41.10
326;DHT22;150;52.352;14.058;2022-11-20T16:48:12;2.80;41.30
326;DHT22;150;52.352;14.058;2022-11-20T16:50:45;2.90;41.50
326;DHT22;150;52.352;14.058;2022-11-20T16:53:12;2.90;41.30
326;DHT22;150;52.352;14.058;2022-11-20T16:55:39;2.90;41.90
326;DHT22;150;52.352;14.058;2022-11-20T16:58:05;2.90;41.70
326;DHT22;150;52.352;14.058;2022-11-20T17:00:35;2.90;41.50
326;DHT22;150;52.352;14.058;2022-11-20T17:03:03;2.90;41.50
326;DHT22;150;52.352;14.058;2022-11-20T17:05:30;2.80;41.70
326;DHT22;150;52.352;14.058;2022-11-20T17:07:57;2.80;41.70
326;DHT22;150;52.352;14.058;2022-11-20T17:10:23;2.70;42.30
326;DHT22;150;52.352;14.058;2022-11-20T17:12:50;2.80;42.40
326;DHT22;150;52.352;14.058;2022-11-20T17:15:17;2.80;42.40
326;DHT22;150;52.352;14.058;2022-11-20T17:17:43;2.70;42.40
326;DHT22;150;52.352;14.058;2022-11-20T17:20:12;2.70;42.90
326;DHT22;150;52.352;14.058;2022-11-20T17:22:38;2.70;42.50
326;DHT22;150;52.352;14.058;2022-11-20T17:25:05;2.80;42.40
326;DHT22;150;52.352;14.058;2022-11-20T17:27:32;2.80;42.30